createdAt,value
2024-04-18T00:01:38.453Z,0.0
2024-04-18T00:03:39.360Z,0.0
2024-04-18T00:06:40.146Z,0.0
2024-04-18T00:11:47.166Z,0.0
2024-04-18T00:13:48.513Z,0.0
2024-04-18T00:18:49.194Z,0.0
2024-04-18T00:21:49.884Z,0.0
2024-04-18T00:23:50.492Z,0.0
2024-04-18T00:26:51.053Z,0.0
2024-04-18T00:28:51.620Z,0.0
2024-04-18T00:31:52.289Z,0.0
2024-04-18T00:33:53.064Z,0.0
2024-04-18T00:36:53.672Z,0.0
2024-04-18T00:39:54.300Z,0.0
2024-04-18T00:41:54.919Z,0.0
2024-04-18T00:46:55.463Z,0.0
2024-04-18T00:49:56.008Z,0.0
2024-04-18T00:51:56.595Z,0.0
2024-04-18T00:54:57.137Z,0.0
2024-04-18T00:59:57.657Z,0.0
2024-04-18T01:01:58.190Z,0.0
2024-04-18T01:04:59.001Z,0.0
2024-04-18T01:07:59.545Z,0.0
2024-04-18T01:10:00.161Z,0.0
2024-04-18T01:13:00.786Z,0.0
2024-04-18T01:15:01.348Z,0.0
2024-04-18T01:18:02.167Z,0.0
2024-04-18T01:20:02.830Z,0.0
2024-04-18T01:23:03.429Z,0.0
2024-04-18T01:25:04.155Z,0.0
2024-04-18T01:28:04.728Z,0.0
2024-04-18T01:30:05.269Z,0.0
2024-04-18T01:33:06.066Z,0.0
2024-04-18T01:35:06.630Z,0.0
2024-04-18T01:40:07.276Z,0.0
2024-04-18T01:43:07.839Z,0.0
2024-04-18T01:45:08.418Z,0.0
2024-04-18T01:48:09.364Z,0.0
2024-04-18T01:50:10.036Z,0.0
2024-04-18T01:53:10.574Z,0.0
2024-04-18T01:55:11.127Z,0.0
2024-04-18T01:58:11.673Z,0.0
2024-04-18T02:01:12.527Z,0.0
2024-04-18T02:03:13.607Z,0.0
2024-04-18T02:06:14.476Z,0.0
2024-04-18T02:08:15.114Z,0.0
2024-04-18T02:11:15.810Z,0.0
2024-04-18T02:13:16.448Z,0.0
2024-04-18T02:16:17.201Z,0.0
2024-04-18T02:21:17.836Z,0.0
2024-04-18T02:23:18.382Z,0.0
2024-04-18T02:26:18.966Z,0.0
2024-04-18T02:28:19.570Z,0.0
2024-04-18T02:31:20.101Z,0.0
2024-04-18T02:33:20.729Z,0.0
2024-04-18T02:36:21.579Z,0.0
2024-04-18T02:39:22.307Z,0.0
2024-04-18T02:41:22.876Z,0.0
2024-04-18T02:44:23.441Z,0.0
2024-04-18T02:46:23.978Z,0.0
2024-04-18T02:49:24.549Z,0.0
2024-04-18T02:51:25.217Z,0.0
2024-04-18T02:54:25.991Z,0.0
2024-04-18T02:56:26.586Z,0.0
2024-04-18T03:01:27.333Z,0.0
2024-04-18T03:04:28.068Z,0.0
2024-04-18T03:06:28.729Z,0.0
2024-04-18T03:09:29.440Z,0.0
2024-04-18T03:12:30.207Z,0.0
2024-04-18T03:14:30.844Z,0.0
2024-04-18T03:17:31.614Z,0.0
2024-04-18T03:19:32.199Z,0.0
2024-04-18T03:22:32.843Z,0.0
2024-04-18T03:24:33.556Z,0.0
2024-04-18T03:27:34.217Z,0.0
2024-04-18T03:29:34.769Z,0.0
2024-04-18T03:32:35.577Z,0.0
2024-04-18T03:34:36.150Z,0.0
2024-04-18T03:37:39.153Z,0.0
2024-04-18T03:42:40.001Z,0.0
2024-04-18T03:44:40.643Z,0.0
2024-04-18T03:47:41.488Z,0.0
2024-04-18T03:49:42.102Z,0.0
2024-04-18T03:52:42.667Z,0.0
2024-04-18T03:55:03.349Z,0.0
2024-04-18T03:58:03.981Z,0.0
2024-04-18T04:00:04.538Z,0.0
2024-04-18T04:03:05.135Z,0.0
2024-04-18T04:05:05.728Z,0.0
2024-04-18T04:08:06.293Z,0.0
2024-04-18T04:10:06.864Z,0.0
2024-04-18T04:13:07.406Z,0.0
2024-04-18T04:15:08.030Z,0.0
2024-04-18T04:18:08.898Z,0.0
2024-04-18T04:23:09.573Z,0.0
2024-04-18T04:25:10.133Z,0.0
2024-04-18T04:28:10.664Z,0.0
2024-04-18T04:31:11.206Z,0.0
2024-04-18T04:33:11.904Z,0.0
2024-04-18T04:36:12.442Z,0.0
2024-04-18T04:38:13.006Z,0.0
2024-04-18T04:41:13.573Z,0.0
2024-04-18T04:43:14.150Z,0.0
2024-04-18T04:46:14.669Z,0.0
2024-04-18T04:48:15.962Z,0.0
2024-04-18T04:51:16.835Z,0.0
2024-04-18T04:53:17.406Z,0.0
2024-04-18T04:56:18.049Z,0.0
2024-04-18T04:58:18.612Z,0.0
2024-04-18T05:03:19.446Z,0.0
2024-04-18T05:06:20.119Z,0.0
2024-04-18T05:08:20.698Z,0.2
2024-04-18T05:11:21.572Z,0.0
2024-04-18T05:14:22.217Z,0.0
2024-04-18T05:16:26.925Z,0.0
2024-04-18T05:19:27.533Z,0.0
2024-04-18T05:21:28.224Z,0.0
2024-04-18T05:24:28.913Z,0.0
2024-04-18T05:26:29.454Z,0.0
2024-04-18T05:29:30.150Z,0.0
2024-04-18T05:31:30.692Z,0.0
2024-04-18T05:34:31.512Z,0.0
2024-04-18T05:36:32.151Z,0.0
2024-04-18T05:39:32.819Z,0.0
2024-04-18T05:44:33.436Z,0.0
2024-04-18T05:47:34.698Z,0.0
2024-04-18T05:49:35.263Z,0.2
2024-04-18T05:52:35.830Z,0.2
2024-04-18T05:54:36.484Z,0.0
2024-04-18T05:56:37.073Z,0.0
2024-04-18T05:59:37.626Z,0.0
2024-04-18T06:02:38.275Z,0.2
2024-04-18T06:04:38.947Z,0.2
2024-04-18T06:07:46.208Z,0.0
2024-04-18T06:09:47.426Z,0.0
2024-04-18T06:12:48.325Z,1.1
2024-04-18T06:14:48.961Z,1.9
2024-04-18T06:17:49.636Z,1.1
2024-04-18T06:19:50.223Z,1.3
2024-04-18T06:24:50.925Z,0.5
2024-04-18T06:27:51.759Z,1.6
2024-04-18T06:29:52.370Z,0.5
2024-04-18T06:32:53.095Z,1.6
2024-04-18T06:34:53.695Z,1.1
2024-04-18T06:37:54.321Z,1.6
2024-04-18T06:40:54.886Z,1.6
2024-04-18T06:42:55.578Z,1.3
2024-04-18T06:45:56.418Z,2.2
2024-04-18T06:47:57.866Z,0.8
2024-04-18T06:50:58.750Z,2.2
2024-04-18T06:52:59.285Z,0.2
2024-04-18T06:55:59.959Z,1.3
2024-04-18T06:58:00.899Z,1.6
2024-04-18T07:01:01.940Z,1.9
2024-04-18T07:06:02.618Z,0.0
2024-04-18T07:08:03.207Z,0.0
2024-04-18T07:11:03.957Z,0.2
2024-04-18T07:13:04.645Z,0.5
2024-04-18T07:16:05.265Z,1.1
2024-04-18T07:18:06.128Z,0.8
2024-04-18T07:21:06.787Z,0.8
2024-04-18T07:23:07.440Z,0.5
2024-04-18T07:26:07.986Z,0.8
2024-04-18T07:29:08.509Z,1.1
2024-04-18T07:31:09.030Z,0.8
2024-04-18T07:34:09.735Z,0.2
2024-04-18T07:36:10.314Z,0.2
2024-04-18T07:39:10.941Z,0.8
2024-04-18T07:41:11.518Z,0.2
2024-04-18T07:46:12.091Z,1.1
2024-04-18T07:49:13.021Z,0.8
2024-04-18T07:51:13.723Z,0.2
2024-04-18T07:54:14.461Z,2.5
2024-04-18T07:56:16.813Z,1.6
2024-04-18T07:59:20.311Z,1.1
2024-04-18T08:01:26.414Z,1.3
2024-04-18T08:05:00.606Z,2.5
2024-04-18T08:09:11.858Z,1.6
2024-04-18T08:12:29.619Z,2.2
2024-04-18T08:14:43.644Z,1.6
2024-04-18T08:16:47.120Z,1.1
2024-04-18T08:19:47.753Z,0.2
2024-04-18T08:21:48.332Z,0.5
2024-04-18T08:26:48.928Z,0.8
2024-04-18T08:29:49.539Z,0.5
2024-04-18T08:31:50.214Z,0.2
2024-04-18T08:34:50.889Z,1.6
2024-04-18T08:37:51.487Z,0.5
2024-04-18T08:39:52.054Z,1.1
2024-04-18T08:42:52.717Z,1.6
2024-04-18T08:44:53.330Z,1.9
2024-04-18T08:47:54.205Z,2.2
2024-04-18T08:49:54.888Z,1.1
2024-04-18T08:52:55.459Z,1.9
2024-04-18T08:54:56.023Z,2.2
2024-04-18T08:57:56.597Z,0.8
2024-04-18T08:59:57.139Z,1.3
2024-04-18T09:02:57.773Z,0.0
2024-04-18T09:07:58.364Z,1.6
2024-04-18T09:09:58.900Z,1.3
2024-04-18T09:13:07.701Z,1.6
2024-04-18T09:15:08.494Z,4.4
2024-04-18T09:18:09.814Z,2.5
2024-04-18T09:20:10.446Z,4.1
2024-04-18T09:23:11.042Z,7.5
2024-04-18T09:25:11.628Z,5.5
2024-04-18T09:28:12.211Z,3.6
2024-04-18T09:31:17.214Z,5.8
2024-04-18T09:33:20.519Z,7.2
2024-04-18T09:35:21.369Z,4.1
2024-04-18T09:38:21.948Z,3.8
2024-04-18T09:40:22.470Z,3.3
2024-04-18T09:48:23.454Z,4.1
2024-04-18T09:51:24.339Z,5.0
2024-04-18T09:53:24.987Z,2.7
2024-04-18T09:56:25.603Z,3.8
2024-04-18T09:58:26.136Z,1.6
2024-04-18T10:01:26.756Z,3.8
2024-04-18T10:03:27.563Z,3.3
2024-04-18T10:06:28.527Z,3.0
2024-04-18T10:08:29.165Z,1.9
2024-04-18T10:11:29.883Z,2.7
2024-04-18T10:13:30.474Z,4.1
2024-04-18T10:16:31.017Z,5.2
2024-04-18T10:19:31.691Z,3.3
2024-04-18T10:22:06.477Z,2.2
2024-04-18T10:24:18.162Z,16.9
2024-04-18T10:29:18.720Z,4.4
2024-04-18T10:34:19.275Z,1.9
2024-04-18T10:36:19.965Z,1.9
2024-04-18T10:39:20.660Z,2.7
2024-04-18T10:41:21.241Z,2.2
2024-04-18T10:44:21.876Z,13.0
2024-04-18T10:47:22.820Z,4.1
2024-04-18T10:49:23.862Z,3.3
2024-04-18T10:52:24.493Z,2.7
2024-04-18T10:54:25.428Z,3.8
2024-04-18T10:57:26.136Z,2.5
2024-04-18T10:59:26.716Z,1.3
2024-04-18T11:02:33.329Z,9.7
2024-04-18T11:04:34.753Z,2.7
2024-04-18T11:09:35.750Z,2.7
2024-04-18T11:12:36.765Z,3.3
2024-04-18T11:14:37.539Z,3.0
2024-04-18T11:17:38.504Z,2.7
2024-04-18T11:19:39.193Z,3.6
2024-04-18T11:22:39.791Z,3.0
2024-04-18T11:24:40.449Z,2.5
2024-04-18T11:27:41.175Z,2.2
2024-04-18T11:29:41.734Z,3.0
2024-04-18T11:32:42.479Z,2.5
2024-04-18T11:34:43.085Z,2.2
2024-04-18T11:37:43.694Z,1.6
2024-04-18T11:40:44.260Z,2.5
2024-04-18T11:42:44.999Z,2.5
2024-04-18T11:45:45.735Z,1.6
2024-04-18T11:50:46.551Z,4.1
2024-04-18T11:52:47.113Z,4.4
2024-04-18T11:55:47.676Z,3.0
2024-04-18T11:57:48.240Z,3.0
2024-04-18T12:00:48.824Z,2.5
2024-04-18T12:02:49.533Z,3.6
2024-04-18T12:05:50.172Z,3.8
2024-04-18T12:07:50.825Z,3.6
2024-04-18T12:10:51.394Z,24.1
2024-04-18T12:12:52.140Z,4.1
2024-04-18T12:15:52.980Z,3.6
2024-04-18T12:18:53.589Z,2.5
2024-04-18T12:20:54.151Z,2.2
2024-04-18T12:23:54.713Z,3.6
2024-04-18T12:25:55.357Z,2.5
2024-04-18T12:30:55.910Z,3.0
2024-04-18T12:33:56.664Z,1.9
2024-04-18T12:35:57.250Z,4.7
2024-04-18T12:38:57.837Z,3.0
2024-04-18T12:43:58.425Z,4.7
2024-04-18T12:46:23.480Z,5.0
2024-04-18T12:49:25.328Z,3.8
2024-04-18T12:51:26.443Z,3.6
2024-04-18T12:54:27.311Z,3.6
2024-04-18T12:56:27.933Z,18.6
2024-04-18T12:59:28.564Z,3.0
2024-04-18T13:01:29.332Z,3.0
2024-04-18T13:04:30.077Z,5.8
2024-04-18T13:06:30.855Z,2.7
2024-04-18T13:11:31.448Z,7.5
2024-04-18T13:14:32.047Z,1.3
2024-04-18T13:16:33.020Z,2.7
2024-04-18T13:19:33.604Z,5.8
2024-04-18T13:21:34.562Z,5.8
2024-04-18T13:24:35.337Z,5.8
2024-04-18T13:26:35.913Z,6.1
2024-04-18T13:29:36.479Z,5.5
2024-04-18T13:32:37.456Z,5.0
2024-04-18T13:34:38.344Z,4.4
2024-04-18T13:37:39.003Z,4.7
2024-04-18T13:39:39.786Z,16.6
2024-04-18T13:42:40.500Z,3.8
2024-04-18T13:44:41.055Z,3.6
2024-04-18T13:47:42.011Z,3.8
2024-04-18T13:52:42.631Z,5.0
2024-04-18T13:54:43.262Z,4.4
2024-04-18T13:57:43.973Z,3.0
2024-04-18T13:59:44.584Z,2.7
2024-04-18T14:02:45.246Z,3.0
2024-04-18T14:04:46.107Z,6.6
2024-04-18T14:07:46.745Z,33.0
2024-04-18T14:09:47.407Z,46.9
2024-04-18T14:12:48.087Z,36.3
2024-04-18T14:15:48.641Z,7.5
2024-04-18T14:17:49.394Z,8.0
2024-04-18T14:20:49.934Z,5.0
2024-04-18T14:22:50.549Z,5.2
2024-04-18T14:25:51.147Z,3.6
2024-04-18T14:27:51.717Z,5.5
2024-04-18T14:32:52.490Z,5.0
2024-04-18T14:35:53.107Z,4.4
2024-04-18T14:37:59.624Z,7.2
2024-04-18T14:41:13.099Z,6.6
2024-04-18T14:43:13.706Z,6.3
2024-04-18T14:46:14.368Z,5.8
2024-04-18T14:48:14.986Z,4.4
2024-04-18T14:51:15.630Z,3.3
2024-04-18T14:53:16.226Z,2.2
2024-04-18T14:56:16.971Z,2.2
2024-04-18T14:58:17.571Z,1.9
2024-04-18T15:01:18.258Z,1.3
2024-04-18T15:03:19.540Z,0.5
2024-04-18T15:06:20.284Z,0.8
2024-04-18T15:08:20.890Z,2.2
2024-04-18T15:13:21.470Z,0.5
2024-04-18T15:16:22.025Z,0.2
2024-04-18T15:19:22.591Z,0.2
2024-04-18T15:21:23.249Z,1.1
2024-04-18T15:24:24.551Z,1.6
2024-04-18T15:26:25.109Z,1.9
2024-04-18T15:29:25.665Z,0.8
2024-04-18T15:31:26.374Z,0.8
2024-04-18T15:34:26.981Z,0.5
2024-04-18T15:36:27.593Z,0.8
2024-04-18T15:39:28.241Z,1.3
2024-04-18T15:41:28.810Z,0.8
2024-04-18T15:44:29.372Z,0.8
2024-04-18T15:46:29.960Z,1.1
2024-04-18T15:49:30.534Z,1.3
2024-04-18T15:54:31.216Z,11.9
2024-04-18T15:57:32.012Z,0.8
2024-04-18T15:59:32.711Z,0.2
2024-04-18T16:01:33.312Z,0.0
2024-04-18T16:04:33.942Z,0.0
2024-04-18T16:07:34.512Z,1.1
2024-04-18T16:09:35.298Z,0.0
2024-04-18T16:12:36.153Z,1.1
2024-04-18T16:14:36.754Z,0.0
2024-04-18T16:17:37.412Z,0.0
2024-04-18T16:19:37.988Z,0.0
2024-04-18T16:22:38.735Z,0.2
2024-04-18T16:24:39.437Z,2.2
2024-04-18T16:27:40.360Z,4.4
2024-04-18T16:29:40.933Z,1.6
2024-04-18T16:34:41.527Z,0.2
2024-04-18T16:37:42.367Z,0.0
2024-04-18T16:39:43.423Z,0.0
2024-04-18T16:42:44.162Z,0.2
2024-04-18T16:45:44.694Z,0.5
2024-04-18T16:47:45.385Z,2.2
2024-04-18T16:50:45.994Z,5.0
2024-04-18T16:52:46.559Z,5.2
2024-04-18T16:55:47.161Z,4.7
2024-04-18T16:57:47.896Z,3.6
2024-04-18T17:00:48.789Z,4.1
2024-04-18T17:02:49.666Z,4.1
2024-04-18T17:05:50.470Z,1.3
2024-04-18T17:07:51.067Z,0.8
2024-04-18T17:10:51.730Z,2.7
2024-04-18T17:15:52.310Z,4.1
2024-04-18T17:18:53.309Z,3.8
2024-04-18T17:20:53.921Z,1.3
2024-04-18T17:23:54.516Z,1.1
2024-04-18T17:25:55.074Z,0.2
2024-04-18T17:28:55.672Z,0.0
2024-04-18T17:33:56.220Z,0.8
2024-04-18T17:35:56.863Z,6.9
2024-04-18T17:38:57.458Z,0.8
2024-04-18T17:41:02.510Z,0.0
2024-04-18T17:44:06.617Z,0.0
2024-04-18T17:46:07.557Z,0.5
2024-04-18T17:49:08.405Z,0.5
2024-04-18T17:51:09.066Z,1.3
2024-04-18T17:56:09.650Z,0.2
2024-04-18T17:59:10.208Z,0.5
2024-04-18T18:01:10.873Z,0.0
2024-04-18T18:04:12.249Z,0.0
2024-04-18T18:07:13.014Z,1.1
2024-04-18T18:09:13.674Z,0.0
2024-04-18T18:11:14.879Z,0.0
2024-04-18T18:14:15.481Z,0.0
2024-04-18T18:17:16.052Z,0.0
2024-04-18T18:19:17.233Z,0.0
2024-04-18T18:22:17.914Z,0.0
2024-04-18T18:24:18.599Z,0.0
2024-04-18T18:27:19.375Z,0.0
2024-04-18T18:29:20.007Z,0.0
2024-04-18T18:32:20.727Z,0.8
2024-04-18T18:37:21.504Z,0.2
2024-04-18T18:39:22.133Z,0.0
2024-04-18T18:42:22.909Z,0.0
2024-04-18T18:44:23.503Z,0.0
2024-04-18T18:47:24.149Z,0.0
2024-04-18T18:50:24.775Z,0.0
2024-04-18T18:52:25.322Z,0.0
2024-04-18T18:55:25.856Z,0.0
2024-04-18T18:57:26.616Z,0.0
2024-04-18T19:00:27.242Z,0.0
2024-04-18T19:02:27.956Z,0.0
2024-04-18T19:05:28.587Z,0.0
2024-04-18T19:07:29.131Z,0.0
2024-04-18T19:10:29.691Z,0.0
2024-04-18T19:12:30.432Z,0.0
2024-04-18T19:17:31.117Z,0.0
2024-04-18T19:20:31.713Z,0.0
2024-04-18T19:22:32.286Z,0.0
2024-04-18T19:25:32.837Z,0.0
2024-04-18T19:28:33.402Z,0.0
2024-04-18T19:30:34.216Z,0.0
2024-04-18T19:33:35.079Z,0.0
2024-04-18T19:35:35.661Z,0.0
2024-04-18T19:38:36.239Z,0.0
2024-04-18T19:40:36.815Z,0.0
2024-04-18T19:43:37.409Z,0.0
2024-04-18T19:45:38.046Z,0.0
2024-04-18T19:48:39.006Z,0.0
2024-04-18T19:50:39.638Z,0.0
2024-04-18T19:53:40.205Z,0.0
2024-04-18T19:58:40.780Z,0.0
2024-04-18T20:00:41.743Z,0.0
2024-04-18T20:03:42.735Z,0.0
2024-04-18T20:05:43.341Z,0.0
2024-04-18T20:08:46.136Z,0.0
2024-04-18T20:10:46.719Z,0.0
2024-04-18T20:13:47.337Z,0.0
2024-04-18T20:16:47.919Z,0.0
2024-04-18T20:18:49.059Z,0.0
2024-04-18T20:21:49.812Z,0.0
2024-04-18T20:23:50.401Z,0.0
2024-04-18T20:26:50.959Z,0.0
2024-04-18T20:28:51.617Z,0.0
2024-04-18T20:31:52.189Z,0.0
2024-04-18T20:33:53.197Z,0.0
2024-04-18T20:38:53.839Z,0.0
2024-04-18T20:41:54.480Z,0.0
2024-04-18T20:43:55.079Z,0.0
2024-04-18T20:46:55.628Z,0.0
2024-04-18T20:49:56.168Z,0.0
2024-04-18T20:51:56.746Z,0.0
2024-04-18T20:54:57.343Z,0.0
2024-04-18T20:56:57.897Z,0.0
2024-04-18T20:58:58.445Z,0.0
2024-04-18T21:01:59.238Z,0.0
2024-04-18T21:04:59.965Z,0.0
2024-04-18T21:07:00.684Z,0.0
2024-04-18T21:10:01.416Z,0.0
2024-04-18T21:12:02.136Z,0.0
2024-04-18T21:15:02.830Z,0.0
2024-04-18T21:20:03.554Z,0.0
2024-04-18T21:22:04.286Z,0.0
2024-04-18T21:25:05.036Z,0.0
2024-04-18T21:27:05.773Z,0.0
2024-04-18T21:30:06.528Z,0.0
2024-04-18T21:32:07.252Z,0.0
2024-04-18T21:35:07.953Z,0.0
2024-04-18T21:37:08.680Z,0.0
2024-04-18T21:40:09.443Z,0.0
2024-04-18T21:43:10.176Z,0.0
2024-04-18T21:45:11.007Z,0.0
2024-04-18T21:48:12.214Z,0.0
2024-04-18T21:50:13.041Z,0.0
2024-04-18T21:53:13.889Z,0.0
2024-04-18T21:55:16.183Z,0.0
2024-04-18T22:00:17.328Z,0.0
2024-04-18T22:03:18.310Z,0.0
2024-04-18T22:05:19.078Z,0.0
2024-04-18T22:08:19.913Z,0.0
2024-04-18T22:10:20.631Z,0.0
2024-04-18T22:13:21.379Z,0.0
2024-04-18T22:15:22.211Z,0.0
2024-04-18T22:18:23.336Z,0.0
2024-04-18T22:20:24.177Z,0.0
2024-04-18T22:23:24.899Z,0.0
2024-04-18T22:25:25.612Z,0.0
2024-04-18T22:28:26.335Z,0.0
2024-04-18T22:31:27.052Z,0.0
2024-04-18T22:33:28.093Z,0.0
2024-04-18T22:36:29.273Z,0.0
2024-04-18T22:41:30.056Z,0.0
2024-04-18T22:43:30.728Z,0.0
2024-04-18T22:46:31.501Z,0.2
2024-04-18T22:48:32.796Z,0.0
2024-04-18T22:51:33.723Z,0.0
2024-04-18T22:53:34.466Z,0.0
2024-04-18T22:56:35.192Z,0.0
2024-04-18T22:58:35.892Z,0.0
2024-04-18T23:01:36.832Z,0.0
2024-04-18T23:03:37.862Z,0.5
2024-04-18T23:06:38.820Z,0.0
2024-04-18T23:08:39.562Z,0.2
2024-04-18T23:11:40.296Z,0.0
2024-04-18T23:14:41.042Z,0.0
2024-04-18T23:16:41.737Z,0.0
2024-04-18T23:21:42.684Z,0.0
2024-04-18T23:24:43.843Z,0.0
2024-04-18T23:26:44.722Z,0.0
2024-04-18T23:29:45.427Z,0.0
2024-04-18T23:31:46.171Z,0.0
2024-04-18T23:34:46.897Z,0.0
2024-04-18T23:36:47.754Z,0.0
2024-04-18T23:39:48.837Z,0.0
2024-04-18T23:41:49.586Z,0.0
2024-04-18T23:44:50.339Z,0.0
2024-04-18T23:46:51.304Z,0.0
2024-04-18T23:49:51.997Z,0.0
2024-04-18T23:51:52.891Z,0.0
2024-04-18T23:54:53.724Z,0.0
2024-04-18T23:56:54.500Z,0.0
